Everglades National Park, Florida
Current Conditions -  °F | °C
As of 8:58 PM on Wednesday 22 Oct 2014 (Local Time) from KHST Reporting Station
Clear Clear  
Wind Chill: 74°   Ceiling: Unl
Heat Index: 74°   Visibility: 10mi
Dew Point: 72°   Wind: 1mph
Humidity: 95%   Direction: 310°NW
Pressure: 29.95"   Gusts: NA
Location:  25.4848°N, 80.5094°W
Report Text: KHST 230058Z AUTO 31001KT 10SM CLR 23/22 A2995 RMK AO2 SLP145 P0002 T02330224
Loading
Personal Weather Stations






























Interactive Weather Map
Tropical Storm Tracking
New forecast layout! Learn more

10-Day Weather Forecast

Advertisements
Track Severe Weather on mobile